Time;durP1;ratioP1;P1;durP2;ratioP2;P2;SDS_P1;SDS_P2;PMS_P1;PMS_P2;Temp;Humidity;BMP_temperature;BMP_pressure;BME280_temperature;BME280_humidity;BME280_pressure;Samples;Min_cycle;Max_cycle;Signal;HPM_P1;HPM_P2
2021/10/31 00:01:21;;;;;;;6.57;3.10;;;;;;;;;;5092658;28;20024;-60
2021/10/31 00:03:51;;;;;;;6.83;3.20;;;;;;;;;;5089582;28;20028;-60
2021/10/31 00:06:20;;;;;;;8.13;3.27;;;;;;;;;;5089591;28;20115;-61
2021/10/31 00:08:49;;;;;;;5.90;2.73;;;;;;;;;;5089604;28;20046;-60
2021/10/31 00:11:19;;;;;;;7.47;3.07;;;;;;;;;;5091001;28;20031;-61
2021/10/31 00:13:57;;;;;;;6.77;3.33;;;;;;;;;;5094329;28;20028;-60
2021/10/31 00:16:29;;;;;;;8.47;3.57;;;;;;;;;;5094055;28;20471;-60
2021/10/31 00:18:58;;;;;;;5.77;2.80;;;;;;;;;;5093392;28;20036;-61
2021/10/31 00:21:28;;;;;;;9.23;2.50;;;;;;;;;;5094058;28;20115;-61
2021/10/31 00:23:57;;;;;;;4.87;2.33;;;;;;;;;;5091437;28;20505;-61
2021/10/31 00:26:26;;;;;;;6.43;2.53;;;;;;;;;;5088903;28;20024;-61
2021/10/31 00:29:00;;;;;;;5.57;2.10;;;;;;;;;;5088818;28;20028;-61
2021/10/31 00:31:28;;;;;;;3.97;2.17;;;;;;;;;;5089058;28;20122;-62
2021/10/31 00:33:57;;;;;;;7.00;3.20;;;;;;;;;;5091027;28;20024;-63
2021/10/31 00:36:25;;;;;;;4.20;2.63;;;;;;;;;;5093507;28;20383;-61
2021/10/31 00:38:54;;;;;;;7.07;3.23;;;;;;;;;;5093744;28;20564;-61
2021/10/31 00:41:21;;;;;;;4.80;2.53;;;;;;;;;;5093052;28;20044;-61
2021/10/31 00:43:49;;;;;;;5.90;2.73;;;;;;;;;;5093248;28;20028;-60
2021/10/31 00:46:19;;;;;;;6.27;2.53;;;;;;;;;;5091259;28;20043;-60
2021/10/31 00:48:50;;;;;;;4.20;2.70;;;;;;;;;;5088868;28;20495;-61
2021/10/31 00:51:20;;;;;;;4.17;2.63;;;;;;;;;;5089211;28;20120;-61
2021/10/31 00:53:51;;;;;;;6.53;2.50;;;;;;;;;;5088939;28;20036;-60
2021/10/31 00:56:19;;;;;;;4.20;2.40;;;;;;;;;;5091573;28;20043;-62
2021/10/31 00:58:46;;;;;;;4.03;2.27;;;;;;;;;;5094038;28;20024;-61
2021/10/31 01:01:16;;;;;;;8.67;2.23;;;;;;;;;;5093825;28;20101;-61
2021/10/31 01:03:47;;;;;;;6.83;2.27;;;;;;;;;;5093280;28;20486;-61
2021/10/31 01:06:23;;;;;;;3.83;2.03;;;;;;;;;;5093662;28;20130;-60
2021/10/31 01:09:10;;;;;;;9.40;2.97;;;;;;;;;;5090339;28;20039;-60
2021/10/31 01:11:45;;;;;;;11.00;3.67;;;;;;;;;;5088326;28;20126;-59
2021/10/31 01:14:21;;;;;;;7.90;3.20;;;;;;;;;;5087024;28;20101;-59
2021/10/31 01:17:06;;;;;;;6.37;3.00;;;;;;;;;;5076355;28;20032;-59
2021/10/31 01:19:42;;;;;;;6.67;2.93;;;;;;;;;;5093413;28;20049;-59
2021/10/31 01:22:15;;;;;;;10.27;3.80;;;;;;;;;;5093305;28;20114;-61
2021/10/31 01:25:00;;;;;;;11.73;3.83;;;;;;;;;;5093066;28;20074;-60
2021/10/31 01:27:30;;;;;;;14.47;4.50;;;;;;;;;;5093277;28;20035;-59
2021/10/31 01:30:07;;;;;;;8.83;4.00;;;;;;;;;;5092130;28;20028;-59
2021/10/31 01:32:36;;;;;;;8.17;4.17;;;;;;;;;;5087911;28;20509;-60
2021/10/31 01:35:27;;;;;;;8.00;3.43;;;;;;;;;;5088254;28;20071;-59
2021/10/31 01:38:10;;;;;;;7.63;3.63;;;;;;;;;;5088471;28;20509;-59
2021/10/31 01:40:45;;;;;;;8.07;3.23;;;;;;;;;;5090017;28;20071;-60
2021/10/31 01:43:28;;;;;;;10.87;4.07;;;;;;;;;;5093106;28;20040;-59
2021/10/31 01:46:07;;;;;;;7.67;3.70;;;;;;;;;;5092674;28;20526;-59
2021/10/31 01:48:52;;;;;;;9.30;4.50;;;;;;;;;;5093012;28;20044;-60
2021/10/31 01:51:24;;;;;;;10.13;3.97;;;;;;;;;;5092950;28;20064;-60
2021/10/31 01:53:54;;;;;;;7.83;3.70;;;;;;;;;;5088624;28;20099;-61
2021/10/31 01:56:23;;;;;;;8.77;4.27;;;;;;;;;;5087974;28;20025;-60
2021/10/31 01:59:01;;;;;;;10.03;4.30;;;;;;;;;;5087939;28;20791;-59
2021/10/31 02:01:28;;;;;;;11.20;5.40;;;;;;;;;;5087270;28;20028;-60
2021/10/31 02:03:57;;;;;;;9.57;4.53;;;;;;;;;;5091888;28;20487;-60
2021/10/31 02:06:25;;;;;;;11.23;4.43;;;;;;;;;;5092608;28;20020;-60
2021/10/31 02:08:53;;;;;;;9.40;4.40;;;;;;;;;;5092869;28;20047;-60
2021/10/31 02:11:20;;;;;;;6.13;3.87;;;;;;;;;;5092399;28;20066;-60
2021/10/31 02:13:49;;;;;;;7.77;4.37;;;;;;;;;;5092051;28;20029;-59
2021/10/31 02:16:17;;;;;;;7.07;4.57;;;;;;;;;;5087678;28;20083;-59
2021/10/31 02:18:46;;;;;;;11.70;4.63;;;;;;;;;;5087436;28;20152;-60
2021/10/31 02:21:16;;;;;;;6.67;3.73;;;;;;;;;;5086910;28;20042;-60
2021/10/31 02:23:44;;;;;;;8.20;4.50;;;;;;;;;;5087439;28;20522;-60
2021/10/31 02:26:11;;;;;;;7.93;4.10;;;;;;;;;;5091446;28;20036;-59
2021/10/31 02:28:38;;;;;;;7.00;4.67;;;;;;;;;;5073906;28;20028;-59
2021/10/31 02:31:05;;;;;;;6.80;4.60;;;;;;;;;;5092333;28;20027;-59
2021/10/31 02:33:32;;;;;;;6.67;4.23;;;;;;;;;;5092115;28;20040;-59
2021/10/31 02:36:00;;;;;;;7.73;3.83;;;;;;;;;;5092344;28;20062;-59
2021/10/31 02:38:27;;;;;;;7.03;4.07;;;;;;;;;;5069810;28;20040;-60
2021/10/31 02:40:54;;;;;;;7.67;3.87;;;;;;;;;;5087303;28;20067;-59
2021/10/31 02:43:21;;;;;;;7.37;3.83;;;;;;;;;;5087117;28;20028;-59
2021/10/31 02:45:48;;;;;;;6.20;3.73;;;;;;;;;;5086854;28;20032;-60
2021/10/31 02:48:17;;;;;;;6.50;3.20;;;;;;;;;;5090848;28;20044;-59
2021/10/31 02:50:46;;;;;;;7.67;3.80;;;;;;;;;;5091867;28;20070;-59
2021/10/31 02:53:16;;;;;;;7.33;3.77;;;;;;;;;;5092028;28;20420;-59
2021/10/31 02:55:48;;;;;;;6.27;3.70;;;;;;;;;;5092134;28;20032;-59
2021/10/31 02:58:29;;;;;;;8.63;3.13;;;;;;;;;;5091285;28;20074;-59
2021/10/31 03:00:59;;;;;;;6.47;3.47;;;;;;;;;;5087510;28;20100;-59
2021/10/31 03:03:27;;;;;;;8.20;3.83;;;;;;;;;;5087399;28;20028;-60
2021/10/31 03:05:57;;;;;;;6.23;3.67;;;;;;;;;;5087083;28;20024;-59
2021/10/31 03:08:25;;;;;;;6.13;3.50;;;;;;;;;;5086819;28;20864;-59
2021/10/31 03:10:57;;;;;;;7.67;3.63;;;;;;;;;;5089941;28;20028;-60
2021/10/31 03:13:28;;;;;;;5.60;3.47;;;;;;;;;;5071915;28;20510;-59
2021/10/31 03:15:55;;;;;;;7.13;3.50;;;;;;;;;;5072655;28;20031;-59
2021/10/31 03:18:22;;;;;;;9.60;4.07;;;;;;;;;;5091869;28;20028;-60
2021/10/31 03:20:49;;;;;;;8.17;3.63;;;;;;;;;;5091725;28;20115;-60
2021/10/31 03:23:17;;;;;;;4.90;3.07;;;;;;;;;;5086993;28;20048;-59
2021/10/31 03:25:43;;;;;;;7.53;3.70;;;;;;;;;;5086749;28;20487;-59
2021/10/31 03:28:10;;;;;;;6.03;2.80;;;;;;;;;;5088738;28;20036;-59
2021/10/31 03:30:37;;;;;;;7.70;3.70;;;;;;;;;;5090696;28;20040;-59
2021/10/31 03:33:04;;;;;;;6.37;3.43;;;;;;;;;;5094639;28;20036;-59
2021/10/31 03:35:31;;;;;;;21.63;3.53;;;;;;;;;;5095410;28;20097;-60
2021/10/31 03:37:58;;;;;;;4.63;3.30;;;;;;;;;;5095659;28;20040;-59
2021/10/31 03:40:25;;;;;;;7.10;3.47;;;;;;;;;;5095575;28;20107;-59
2021/10/31 03:42:53;;;;;;;8.13;3.50;;;;;;;;;;5095278;28;20501;-59
2021/10/31 03:45:20;;;;;;;8.80;3.17;;;;;;;;;;5090670;28;20526;-59
2021/10/31 03:47:48;;;;;;;8.57;3.63;;;;;;;;;;5090220;28;20035;-59
2021/10/31 03:50:16;;;;;;;9.00;3.60;;;;;;;;;;5090278;28;20067;-59
2021/10/31 03:52:44;;;;;;;6.07;3.70;;;;;;;;;;5090302;28;20028;-60
2021/10/31 03:55:11;;;;;;;6.33;3.50;;;;;;;;;;5093781;28;20040;-59
2021/10/31 03:57:38;;;;;;;13.60;4.10;;;;;;;;;;5094417;28;20380;-59
2021/10/31 04:00:06;;;;;;;10.03;4.37;;;;;;;;;;5095101;28;20032;-59
2021/10/31 04:02:34;;;;;;;11.80;6.93;;;;;;;;;;5095248;28;20035;-59
2021/10/31 04:05:01;;;;;;;10.33;7.23;;;;;;;;;;5095192;28;20387;-59
2021/10/31 04:07:28;;;;;;;11.57;4.90;;;;;;;;;;5091205;28;20032;-61
2021/10/31 04:09:55;;;;;;;7.87;3.80;;;;;;;;;;5089699;28;20122;-59
2021/10/31 04:12:21;;;;;;;6.90;3.40;;;;;;;;;;5089723;28;20043;-59
2021/10/31 04:14:48;;;;;;;5.77;3.03;;;;;;;;;;5089794;28;20032;-59
2021/10/31 04:17:15;;;;;;;6.87;4.13;;;;;;;;;;5092953;28;20048;-59
2021/10/31 04:19:42;;;;;;;8.80;4.60;;;;;;;;;;5094583;28;20032;-59
2021/10/31 04:22:09;;;;;;;9.13;6.10;;;;;;;;;;5094600;28;20118;-59
2021/10/31 04:24:36;;;;;;;12.80;6.83;;;;;;;;;;5094557;28;20036;-59
2021/10/31 04:27:03;;;;;;;10.23;5.50;;;;;;;;;;5094821;28;20097;-59
2021/10/31 04:29:30;;;;;;;10.00;5.30;;;;;;;;;;5090800;28;20049;-59
2021/10/31 04:31:57;;;;;;;11.23;3.93;;;;;;;;;;5089213;28;20032;-59
2021/10/31 04:34:24;;;;;;;7.10;3.10;;;;;;;;;;5089194;28;20107;-60
2021/10/31 04:36:51;;;;;;;8.03;5.57;;;;;;;;;;5089428;28;20479;-59
2021/10/31 04:39:18;;;;;;;10.77;5.60;;;;;;;;;;5090816;28;20052;-60
2021/10/31 04:41:47;;;;;;;9.20;5.20;;;;;;;;;;5094174;28;20486;-60
2021/10/31 04:44:14;;;;;;;9.87;4.97;;;;;;;;;;5094401;28;20042;-60
2021/10/31 04:46:41;;;;;;;7.70;4.60;;;;;;;;;;5093719;28;20024;-60
2021/10/31 04:49:08;;;;;;;11.17;5.00;;;;;;;;;;5094389;28;20032;-60
2021/10/31 04:51:35;;;;;;;7.53;4.00;;;;;;;;;;5091092;28;20131;-60
2021/10/31 04:54:02;;;;;;;6.00;4.17;;;;;;;;;;5088957;28;20087;-60
2021/10/31 04:56:29;;;;;;;9.63;3.57;;;;;;;;;;5089170;28;20020;-60
2021/10/31 04:58:56;;;;;;;6.90;3.93;;;;;;;;;;5088746;28;20043;-60
2021/10/31 05:01:24;;;;;;;7.43;3.33;;;;;;;;;;5091560;28;20522;-61
2021/10/31 05:03:51;;;;;;;5.13;2.80;;;;;;;;;;5093386;28;20028;-59
2021/10/31 05:06:18;;;;;;;6.47;3.50;;;;;;;;;;5093978;28;20056;-60
2021/10/31 05:08:45;;;;;;;8.03;3.63;;;;;;;;;;5093913;28;20035;-60
2021/10/31 05:11:11;;;;;;;5.20;3.50;;;;;;;;;;5093333;28;20103;-60
2021/10/31 05:13:39;;;;;;;5.93;3.53;;;;;;;;;;5091129;28;20036;-61
2021/10/31 05:16:06;;;;;;;7.67;3.57;;;;;;;;;;5088572;28;20044;-60
2021/10/31 05:18:34;;;;;;;5.70;3.17;;;;;;;;;;5088730;28;20483;-59
2021/10/31 05:21:07;;;;;;;20.73;3.67;;;;;;;;;;5087510;28;20097;-59
2021/10/31 05:23:36;;;;;;;8.63;3.10;;;;;;;;;;5090145;28;20036;-59
2021/10/31 05:26:08;;;;;;;6.40;3.17;;;;;;;;;;5092725;28;20048;-59
2021/10/31 05:28:36;;;;;;;9.53;3.37;;;;;;;;;;5092541;28;20046;-59
2021/10/31 05:31:08;;;;;;;5.00;2.90;;;;;;;;;;5092862;28;20024;-60
2021/10/31 05:33:44;;;;;;;4.73;3.00;;;;;;;;;;5092283;28;20028;-59
2021/10/31 05:36:13;;;;;;;6.80;3.00;;;;;;;;;;5089390;28;20494;-59
2021/10/31 05:38:42;;;;;;;5.00;2.80;;;;;;;;;;5087620;28;20035;-60
2021/10/31 05:41:11;;;;;;;5.20;2.40;;;;;;;;;;5087817;28;20024;-59
2021/10/31 05:43:40;;;;;;;5.17;2.70;;;;;;;;;;5087443;28;20028;-60
2021/10/31 05:46:09;;;;;;;9.10;3.13;;;;;;;;;;5090115;28;20039;-59
2021/10/31 05:48:38;;;;;;;6.00;3.30;;;;;;;;;;5092595;28;20034;-59
2021/10/31 05:51:10;;;;;;;6.10;3.17;;;;;;;;;;5091849;28;20027;-59
2021/10/31 05:53:46;;;;;;;7.17;3.23;;;;;;;;;;5092111;28;20387;-60
2021/10/31 05:56:20;;;;;;;6.20;3.23;;;;;;;;;;5091321;28;20089;-59
2021/10/31 05:58:52;;;;;;;3.80;2.63;;;;;;;;;;5088408;28;20459;-59
2021/10/31 06:01:21;;;;;;;4.43;2.70;;;;;;;;;;5087068;28;20057;-59
2021/10/31 06:03:51;;;;;;;6.87;3.40;;;;;;;;;;5087293;28;20028;-59
2021/10/31 06:06:24;;;;;;;4.73;2.70;;;;;;;;;;5087185;28;20085;-60
2021/10/31 06:09:01;;;;;;;5.87;2.80;;;;;;;;;;5090378;28;20036;-60
2021/10/31 06:11:33;;;;;;;5.37;3.20;;;;;;;;;;5092098;28;20036;-59
2021/10/31 06:14:02;;;;;;;6.43;3.03;;;;;;;;;;5091673;28;20108;-59
2021/10/31 06:16:31;;;;;;;5.37;2.57;;;;;;;;;;5091863;28;20024;-59
2021/10/31 06:19:03;;;;;;;5.07;3.37;;;;;;;;;;5091184;28;20023;-59
2021/10/31 06:21:32;;;;;;;3.73;2.60;;;;;;;;;;5086702;28;20028;-60
2021/10/31 06:24:04;;;;;;;7.13;3.50;;;;;;;;;;5086964;28;20084;-59
2021/10/31 06:26:33;;;;;;;5.07;2.87;;;;;;;;;;5087013;28;20040;-60
2021/10/31 06:29:06;;;;;;;5.53;3.13;;;;;;;;;;5086901;28;20028;-59
2021/10/31 06:31:39;;;;;;;6.47;3.50;;;;;;;;;;5090778;28;20098;-60
2021/10/31 06:34:11;;;;;;;5.93;2.63;;;;;;;;;;5091790;28;20057;-60
2021/10/31 06:36:43;;;;;;;7.53;3.23;;;;;;;;;;5091722;28;20031;-60
2021/10/31 06:39:12;;;;;;;5.73;3.10;;;;;;;;;;5091254;28;20036;-60
2021/10/31 06:41:47;;;;;;;6.73;2.70;;;;;;;;;;5091139;28;20039;-59
2021/10/31 06:44:23;;;;;;;4.73;2.60;;;;;;;;;;5086208;28;20032;-59
2021/10/31 06:46:53;;;;;;;4.30;2.60;;;;;;;;;;5086979;28;20552;-59
2021/10/31 06:49:21;;;;;;;5.50;3.03;;;;;;;;;;5086595;28;20040;-59
2021/10/31 06:51:56;;;;;;;5.23;3.20;;;;;;;;;;5087179;28;20097;-60
2021/10/31 06:54:25;;;;;;;6.03;2.90;;;;;;;;;;5090901;28;20036;-59
2021/10/31 06:56:54;;;;;;;5.37;2.47;;;;;;;;;;5091047;28;20120;-59
2021/10/31 06:59:24;;;;;;;4.63;2.70;;;;;;;;;;5091037;28;20040;-59
2021/10/31 07:01:53;;;;;;;4.73;2.63;;;;;;;;;;5091486;28;20115;-59
2021/10/31 07:04:24;;;;;;;6.60;2.87;;;;;;;;;;5094329;28;20028;-59
2021/10/31 07:06:54;;;;;;;7.00;3.33;;;;;;;;;;5090257;28;20036;-59
2021/10/31 07:09:23;;;;;;;4.97;3.00;;;;;;;;;;5089982;28;20035;-59
2021/10/31 07:11:53;;;;;;;4.70;3.30;;;;;;;;;;5090616;28;20061;-59
2021/10/31 07:14:22;;;;;;;5.07;3.20;;;;;;;;;;5091361;28;20047;-60
2021/10/31 07:16:52;;;;;;;5.53;2.83;;;;;;;;;;5095283;28;20058;-59
2021/10/31 07:19:24;;;;;;;3.90;2.57;;;;;;;;;;5094873;28;20536;-59
2021/10/31 07:21:57;;;;;;;4.23;2.67;;;;;;;;;;5095215;28;20119;-59
2021/10/31 07:24:26;;;;;;;6.20;2.67;;;;;;;;;;5095137;28;20028;-59
2021/10/31 07:26:58;;;;;;;6.40;3.10;;;;;;;;;;5093231;28;20038;-59
2021/10/31 07:29:28;;;;;;;5.40;3.13;;;;;;;;;;5090250;28;20103;-59
2021/10/31 07:31:57;;;;;;;5.27;3.20;;;;;;;;;;5089671;28;20498;-59
2021/10/31 07:34:26;;;;;;;5.13;2.67;;;;;;;;;;5090129;28;20044;-59
2021/10/31 07:37:00;;;;;;;5.33;2.87;;;;;;;;;;5090925;28;20370;-59
2021/10/31 07:39:30;;;;;;;8.35;2.85;;;;;;;;;;5094900;28;20035;-59
2021/10/31 07:42:07;;;;;;;4.93;2.93;;;;;;;;;;5094987;28;20039;-59
2021/10/31 07:44:36;;;;;;;6.10;2.43;;;;;;;;;;5094756;28;20063;-59
2021/10/31 07:47:11;;;;;;;7.00;3.07;;;;;;;;;;5094566;28;20060;-59
2021/10/31 07:49:51;;;;;;;5.50;2.90;;;;;;;;;;5092164;28;20114;-60
2021/10/31 07:52:21;;;;;;;5.50;3.40;;;;;;;;;;5089000;28;20119;-59
2021/10/31 07:54:50;;;;;;;7.07;4.30;;;;;;;;;;5087509;28;20048;-59
2021/10/31 07:57:22;;;;;;;6.13;3.80;;;;;;;;;;5089293;28;20445;-59
2021/10/31 07:59:52;;;;;;;6.93;3.40;;;;;;;;;;5091582;28;20034;-60
2021/10/31 08:02:21;;;;;;;6.10;3.20;;;;;;;;;;5094216;28;20028;-60
2021/10/31 08:04:50;;;;;;;5.80;2.83;;;;;;;;;;5094261;28;20024;-59
2021/10/31 08:07:26;;;;;;;4.43;2.67;;;;;;;;;;5094516;28;20427;-59
2021/10/31 08:09:59;;;;;;;5.43;2.70;;;;;;;;;;5093790;28;20093;-59
2021/10/31 08:12:32;;;;;;;4.07;2.73;;;;;;;;;;5090264;28;20429;-60
2021/10/31 08:15:01;;;;;;;4.70;3.10;;;;;;;;;;5088540;28;20510;-59
2021/10/31 08:17:34;;;;;;;8.53;3.40;;;;;;;;;;5089135;28;20040;-59
2021/10/31 08:20:07;;;;;;;5.13;3.30;;;;;;;;;;5088737;28;20020;-60
2021/10/31 08:22:37;;;;;;;4.63;2.93;;;;;;;;;;5092998;28;20094;-59
2021/10/31 08:25:06;;;;;;;9.77;3.10;;;;;;;;;;5093501;28;20025;-59
2021/10/31 08:27:35;;;;;;;4.80;2.97;;;;;;;;;;5093436;28;20047;-59
2021/10/31 08:30:06;;;;;;;4.73;2.80;;;;;;;;;;5093540;28;20035;-59
2021/10/31 08:32:43;;;;;;;5.80;3.30;;;;;;;;;;5093522;28;20490;-59
2021/10/31 08:35:17;;;;;;;3.47;2.57;;;;;;;;;;5089058;28;20047;-59
2021/10/31 08:37:47;;;;;;;5.57;3.07;;;;;;;;;;5088534;28;20074;-59
2021/10/31 08:40:22;;;;;;;4.57;2.87;;;;;;;;;;5088789;28;20277;-59
2021/10/31 08:42:52;;;;;;;7.40;3.35;;;;;;;;;;5088529;28;20039;-60
2021/10/31 08:45:22;;;;;;;4.43;2.70;;;;;;;;;;5093536;28;20341;-59
2021/10/31 08:47:55;;;;;;;5.77;2.90;;;;;;;;;;5092959;28;20040;-59
2021/10/31 08:50:25;;;;;;;7.00;3.60;;;;;;;;;;5092969;28;20035;-59
2021/10/31 08:52:57;;;;;;;6.60;3.20;;;;;;;;;;5093317;28;20031;-59
2021/10/31 08:55:26;;;;;;;5.33;3.07;;;;;;;;;;5092843;28;20386;-59
2021/10/31 08:57:59;;;;;;;6.87;3.20;;;;;;;;;;5088420;28;20043;-59
2021/10/31 09:00:31;;;;;;;4.87;3.43;;;;;;;;;;5088230;28;20067;-59
2021/10/31 09:03:00;;;;;;;5.33;3.20;;;;;;;;;;5087847;28;20028;-60
2021/10/31 09:05:35;;;;;;;5.67;3.83;;;;;;;;;;5088302;28;20394;-59
2021/10/31 09:08:03;;;;;;;;;;;;;;;;;;5093508;28;20028;-59
2021/10/31 09:10:32;;;;;;;4.10;2.80;;;;;;;;;;5093137;28;19912;-59
2021/10/31 09:13:05;;;;;;;6.17;3.20;;;;;;;;;;5092735;28;20028;-59
2021/10/31 09:15:38;;;;;;;8.80;3.07;;;;;;;;;;5093053;28;20040;-59
2021/10/31 09:18:19;;;;;;;3.93;2.70;;;;;;;;;;5091172;28;20016;-59
2021/10/31 09:20:54;;;;;;;8.90;3.10;;;;;;;;;;5073815;28;20089;-59
2021/10/31 09:23:24;;;;;;;4.78;3.00;;;;;;;;;;5067818;28;20385;-59
2021/10/31 09:25:54;;;;;;;7.33;3.07;;;;;;;;;;5072329;28;20157;-60
2021/10/31 09:28:27;;;;;;;7.53;3.47;;;;;;;;;;5088866;28;20035;-59
2021/10/31 09:30:56;;;;;;;4.50;3.07;;;;;;;;;;5092776;28;20028;-59
2021/10/31 09:33:25;;;;;;;4.90;3.20;;;;;;;;;;5092849;28;20035;-59
2021/10/31 09:36:03;;;;;;;4.23;2.70;;;;;;;;;;5092147;28;20119;-59
2021/10/31 09:38:38;;;;;;;6.37;2.90;;;;;;;;;;5092289;28;20146;-59
2021/10/31 09:41:11;;;;;;;;;;;;;;;;;;5089963;28;20028;-59
2021/10/31 09:43:54;;;;;;;7.37;3.20;;;;;;;;;;5087063;28;20307;-59
2021/10/31 09:46:24;;;;;;;5.87;2.90;;;;;;;;;;5087682;28;20021;-59
2021/10/31 09:48:58;;;;;;;8.47;3.00;;;;;;;;;;5087361;28;20510;-59
2021/10/31 09:51:28;;;;;;;4.38;3.00;;;;;;;;;;5090507;28;20040;-59
2021/10/31 09:54:00;;;;;;;8.77;3.07;;;;;;;;;;5092214;28;20375;-59
2021/10/31 09:56:34;;;;;;;7.23;2.97;;;;;;;;;;5092139;28;20028;-59
2021/10/31 09:59:11;;;;;;;5.00;3.10;;;;;;;;;;5091914;28;20024;-59
2021/10/31 10:04:31;;;;;;;4.27;2.80;;;;;;;;;;5087358;28;20067;-59
2021/10/31 10:07:05;;;;;;;6.17;3.10;;;;;;;;;;5086567;28;20560;-59
2021/10/31 10:09:35;;;;;;;5.03;2.67;;;;;;;;;;5086530;28;20055;-60
2021/10/31 10:12:18;;;;;;;4.37;2.83;;;;;;;;;;5087212;28;20020;-59
2021/10/31 10:14:53;;;;;;;18.53;3.43;;;;;;;;;;5092064;28;20036;-59
2021/10/31 10:17:22;;;;;;;6.50;3.13;;;;;;;;;;5091282;28;20395;-59
2021/10/31 10:19:59;;;;;;;4.13;2.77;;;;;;;;;;5091967;28;20055;-59
2021/10/31 10:22:29;;;;;;;4.80;2.80;;;;;;;;;;5091622;28;20032;-59
2021/10/31 10:24:58;;;;;;;5.00;2.70;;;;;;;;;;5090304;28;20502;-58
2021/10/31 10:27:38;;;;;;;4.37;2.80;;;;;;;;;;5086839;28;20046;-59
2021/10/31 10:30:17;;;;;;;4.23;2.43;;;;;;;;;;5086121;28;20028;-60
2021/10/31 10:33:04;;;;;;;7.07;3.27;;;;;;;;;;5086161;28;20111;-59
2021/10/31 10:35:34;;;;;;;5.67;2.83;;;;;;;;;;5088711;28;20483;-59
2021/10/31 10:38:17;;;;;;;4.73;2.77;;;;;;;;;;5091352;28;20529;-59
2021/10/31 10:40:46;;;;;;;4.37;2.60;;;;;;;;;;5091685;28;20477;-58
2021/10/31 10:43:16;;;;;;;5.10;2.70;;;;;;;;;;5091733;28;20474;-58
2021/10/31 10:45:50;;;;;;;4.87;2.90;;;;;;;;;;5091189;28;20035;-59
2021/10/31 10:48:22;;;;;;;5.23;2.93;;;;;;;;;;5087835;28;20501;-59
2021/10/31 10:50:51;;;;;;;6.43;3.53;;;;;;;;;;5086827;28;20030;-59
2021/10/31 10:53:21;;;;;;;5.20;3.47;;;;;;;;;;5086259;28;20115;-58
2021/10/31 10:55:53;;;;;;;5.03;2.90;;;;;;;;;;5086534;28;20044;-58
2021/10/31 10:58:22;;;;;;;4.77;2.90;;;;;;;;;;5089880;28;20023;-58
2021/10/31 11:00:56;;;;;;;5.53;2.97;;;;;;;;;;5091586;28;20082;-58
2021/10/31 11:03:32;;;;;;;4.20;3.00;;;;;;;;;;5091329;28;20020;-58
2021/10/31 11:06:03;;;;;;;8.17;2.53;;;;;;;;;;5091191;28;20028;-58
2021/10/31 11:08:41;;;;;;;5.50;2.90;;;;;;;;;;5090845;28;20033;-58
2021/10/31 11:11:12;;;;;;;7.03;3.00;;;;;;;;;;5086647;28;20020;-60
2021/10/31 11:13:51;;;;;;;4.60;2.80;;;;;;;;;;5086233;28;20058;-59
2021/10/31 11:16:21;;;;;;;5.30;2.53;;;;;;;;;;5086084;28;20093;-59
2021/10/31 11:18:53;;;;;;;6.93;3.47;;;;;;;;;;5085586;28;20028;-58
2021/10/31 11:21:23;;;;;;;9.53;5.93;;;;;;;;;;5091355;28;20035;-58
2021/10/31 11:23:57;;;;;;;12.33;8.47;;;;;;;;;;5091170;28;20020;-59
2021/10/31 11:26:29;;;;;;;14.73;7.45;;;;;;;;;;5091209;28;20016;-60
2021/10/31 11:29:04;;;;;;;10.77;6.40;;;;;;;;;;5090697;28;20024;-58
2021/10/31 11:31:33;;;;;;;14.80;7.60;;;;;;;;;;5090622;28;20086;-58
2021/10/31 11:34:06;;;;;;;10.20;6.53;;;;;;;;;;5086189;28;20020;-58
2021/10/31 11:36:38;;;;;;;13.00;6.53;;;;;;;;;;5086131;28;20032;-59
2021/10/31 11:39:16;;;;;;;11.30;5.93;;;;;;;;;;5086308;28;20040;-58
2021/10/31 11:41:50;;;;;;;6.77;4.63;;;;;;;;;;5087247;28;20059;-58
2021/10/31 11:44:22;;;;;;;11.93;4.17;;;;;;;;;;5090728;28;20027;-58
2021/10/31 11:47:01;;;;;;;6.97;4.27;;;;;;;;;;5090790;28;20035;-58
2021/10/31 11:49:30;;;;;;;5.30;3.60;;;;;;;;;;5093101;28;20031;-59
2021/10/31 11:51:59;;;;;;;7.60;4.10;;;;;;;;;;5094327;28;20109;-58
2021/10/31 11:54:29;;;;;;;6.87;4.10;;;;;;;;;;5091994;28;20617;-58
2021/10/31 11:57:17;;;;;;;10.67;3.87;;;;;;;;;;5089891;28;20055;-58
2021/10/31 12:00:08;;;;;;;6.70;4.20;;;;;;;;;;5089286;28;20121;-58
2021/10/31 12:02:39;;;;;;;8.60;5.33;;;;;;;;;;5089457;28;20051;-58
2021/10/31 12:05:39;;;;;;;8.73;3.90;;;;;;;;;;5088887;28;20028;-59
2021/10/31 12:08:09;;;;;;;8.77;4.97;;;;;;;;;;5093917;28;20036;-58
2021/10/31 12:10:52;;;;;;;7.10;4.30;;;;;;;;;;5094316;28;20035;-58
2021/10/31 12:13:25;;;;;;;9.10;5.30;;;;;;;;;;5092682;28;20146;-58
2021/10/31 12:15:58;;;;;;;9.33;5.83;;;;;;;;;;5092899;28;20042;-58
2021/10/31 12:18:43;;;;;;;6.13;4.17;;;;;;;;;;5089146;28;20601;-58
2021/10/31 12:21:32;;;;;;;5.97;3.95;;;;;;;;;;5088521;28;20016;-58
2021/10/31 12:24:08;;;;;;;6.50;4.07;;;;;;;;;;5089448;28;20438;-58
2021/10/31 12:26:41;;;;;;;16.30;4.40;;;;;;;;;;5090862;28;20080;-58
2021/10/31 12:29:36;;;;;;;7.53;4.53;;;;;;;;;;5093657;28;20471;-58
2021/10/31 12:32:16;;;;;;;5.00;3.78;;;;;;;;;;5091801;28;20048;-58
2021/10/31 12:34:50;;;;;;;5.27;4.03;;;;;;;;;;5093391;28;20083;-58
2021/10/31 12:37:27;;;;;;;7.88;4.10;;;;;;;;;;5093844;28;20039;-58
2021/10/31 12:39:59;;;;;;;7.80;3.60;;;;;;;;;;5089407;28;20032;-58
2021/10/31 12:42:37;;;;;;;7.33;4.20;;;;;;;;;;5088415;28;20044;-58
2021/10/31 12:45:23;;;;;;;5.90;4.17;;;;;;;;;;5088561;28;20061;-58
2021/10/31 12:47:55;;;;;;;6.07;3.95;;;;;;;;;;5088517;28;20421;-58
2021/10/31 12:50:24;;;;;;;4.77;3.13;;;;;;;;;;5093433;28;20036;-58
2021/10/31 12:53:10;;;;;;;7.17;4.23;;;;;;;;;;5093094;28;20047;-58
2021/10/31 12:55:40;;;;;;;6.67;3.93;;;;;;;;;;5093067;28;20097;-58
2021/10/31 12:58:14;;;;;;;13.70;4.43;;;;;;;;;;5092658;28;20065;-58
2021/10/31 13:00:52;;;;;;;7.07;4.20;;;;;;;;;;5090795;28;20027;-58
2021/10/31 13:03:32;;;;;;;5.77;3.43;;;;;;;;;;5088231;28;20147;-58
2021/10/31 13:06:02;;;;;;;7.47;4.53;;;;;;;;;;5087972;28;20540;-58
2021/10/31 13:08:31;;;;;;;10.37;4.77;;;;;;;;;;5088524;28;20027;-58
2021/10/31 13:11:01;;;;;;;7.63;4.70;;;;;;;;;;5088642;28;20043;-58
2021/10/31 13:13:35;;;;;;;12.20;5.13;;;;;;;;;;5092427;28;20055;-58
2021/10/31 13:16:09;;;;;;;9.88;4.30;;;;;;;;;;5092735;28;20486;-58
2021/10/31 13:18:43;;;;;;;8.23;4.53;;;;;;;;;;5093141;28;20062;-58
2021/10/31 13:21:21;;;;;;;14.85;5.88;;;;;;;;;;5092887;28;20020;-58
2021/10/31 13:23:50;;;;;;;9.83;5.50;;;;;;;;;;5089721;28;20093;-59
2021/10/31 13:26:20;;;;;;;9.87;5.03;;;;;;;;;;5087999;28;20017;-58
2021/10/31 13:28:57;;;;;;;10.73;4.70;;;;;;;;;;5087758;28;20431;-60
2021/10/31 13:31:30;;;;;;;6.77;4.33;;;;;;;;;;5087724;28;20030;-58
2021/10/31 13:34:06;;;;;;;8.63;4.30;;;;;;;;;;5090532;28;20379;-58
2021/10/31 13:36:37;;;;;;;8.57;4.30;;;;;;;;;;5092266;28;20060;-59
2021/10/31 13:39:11;;;;;;;7.60;4.50;;;;;;;;;;5092477;28;20069;-59
2021/10/31 13:41:45;;;;;;;7.57;4.00;;;;;;;;;;5092394;28;20483;-59
2021/10/31 13:44:14;;;;;;;10.50;4.50;;;;;;;;;;5091841;28;20035;-59
2021/10/31 13:46:48;;;;;;;6.33;3.67;;;;;;;;;;5088077;28;20020;-59
2021/10/31 13:49:20;;;;;;;8.32;3.83;;;;;;;;;;5086922;28;20032;-59
2021/10/31 13:51:56;;;;;;;7.10;3.50;;;;;;;;;;5087027;28;20036;-61
2021/10/31 13:54:26;;;;;;;6.50;3.67;;;;;;;;;;5086644;28;20063;-59
2021/10/31 13:57:02;;;;;;;7.50;3.93;;;;;;;;;;5091851;28;20031;-59
2021/10/31 13:59:36;;;;;;;6.63;3.60;;;;;;;;;;5092280;28;20024;-60
2021/10/31 14:02:16;;;;;;;5.10;3.33;;;;;;;;;;5092125;28;20047;-59
2021/10/31 14:04:45;;;;;;;11.37;3.77;;;;;;;;;;5091498;28;20028;-59
2021/10/31 14:07:20;;;;;;;7.17;3.50;;;;;;;;;;5090784;28;20405;-60
2021/10/31 14:09:53;;;;;;;7.15;3.85;;;;;;;;;;5087376;28;20513;-59
2021/10/31 14:12:25;;;;;;;6.10;3.57;;;;;;;;;;5086889;28;20089;-59
2021/10/31 14:15:06;;;;;;;8.73;4.20;;;;;;;;;;5086093;28;20446;-59
2021/10/31 14:17:39;;;;;;;9.43;4.03;;;;;;;;;;5087881;28;20504;-59
2021/10/31 14:20:15;;;;;;;5.87;3.47;;;;;;;;;;5091414;28;20034;-59
2021/10/31 14:22:51;;;;;;;5.10;3.27;;;;;;;;;;5091884;28;20166;-59
2021/10/31 14:25:25;;;;;;;8.67;3.03;;;;;;;;;;5091147;28;20028;-61
2021/10/31 14:28:10;;;;;;;4.70;3.05;;;;;;;;;;5091998;28;20101;-59
2021/10/31 14:30:37;;;;;;;;;;;;;;;;;;5088930;28;20040;-60
2021/10/31 14:33:17;;;;;;;6.57;3.50;;;;;;;;;;5086333;28;20410;-61
2021/10/31 14:36:14;;;;;;;5.60;3.47;;;;;;;;;;5086425;28;20060;-59
2021/10/31 14:38:45;;;;;;;4.43;3.03;;;;;;;;;;5078606;28;20490;-60
2021/10/31 14:41:12;;;;;;;5.50;2.80;;;;;;;;;;5091759;28;20059;-59
2021/10/31 14:43:39;;;;;;;4.70;2.90;;;;;;;;;;5091725;28;20040;-60
2021/10/31 14:46:07;;;;;;;4.80;2.97;;;;;;;;;;5092380;28;20099;-60
2021/10/31 14:48:39;;;;;;;4.37;2.53;;;;;;;;;;5091985;28;20044;-59
2021/10/31 14:51:26;;;;;;;3.97;2.57;;;;;;;;;;5091906;28;20024;-60
2021/10/31 14:54:11;;;;;;;5.30;2.60;;;;;;;;;;5087115;28;20024;-60
2021/10/31 14:56:46;;;;;;;7.17;3.00;;;;;;;;;;5086888;28;20542;-60
2021/10/31 14:59:15;;;;;;;9.60;3.15;;;;;;;;;;5086872;28;20024;-60
2021/10/31 15:01:43;;;;;;;7.33;3.23;;;;;;;;;;5087989;28;20573;-60
2021/10/31 15:04:10;;;;;;;5.30;2.83;;;;;;;;;;5091952;28;20059;-60
2021/10/31 15:06:37;;;;;;;6.73;3.77;;;;;;;;;;5092112;28;20073;-60
2021/10/31 15:09:04;;;;;;;4.53;2.83;;;;;;;;;;5091027;28;20043;-61
2021/10/31 15:11:32;;;;;;;6.30;3.70;;;;;;;;;;5091992;28;20034;-60
2021/10/31 15:14:00;;;;;;;3.73;2.70;;;;;;;;;;5090244;28;20024;-60